Time;durP1;ratioP1;P1;durP2;ratioP2;P2;SDS_P1;SDS_P2;PMS_P1;PMS_P2;Temp;Humidity;BMP_temperature;BMP_pressure;BME280_temperature;BME280_humidity;BME280_pressure;Samples;Min_cycle;Max_cycle;Signal;HPM_P1;HPM_P2
2022/11/14 00:00:06;;;;;;;25.13;9.27;;;;;;;7.34;100.00;100694.13;5054535;28;20036;-61
2022/11/14 00:02:31;;;;;;;14.18;7.45;;;;;;;7.28;100.00;100693.94;5053275;28;20677;-59
2022/11/14 00:04:56;;;;;;;15.32;8.68;;;;;;;7.26;100.00;100695.94;5064729;28;20082;-60
2022/11/14 00:07:22;;;;;;;29.25;9.57;;;;;;;7.27;100.00;100692.31;5060041;28;20083;-61
2022/11/14 00:09:47;;;;;;;21.27;9.48;;;;;;;7.26;100.00;100686.22;5056707;28;20035;-60
2022/11/14 00:12:12;;;;;;;14.45;7.93;;;;;;;7.30;100.00;100678.78;5060416;28;20031;-62
2022/11/14 00:14:38;;;;;;;24.40;9.63;;;;;;;7.37;100.00;100671.84;5062763;28;20060;-61
2022/11/14 00:17:04;;;;;;;35.10;11.20;;;;;;;7.44;100.00;100675.50;5054516;28;20066;-59
2022/11/14 00:19:30;;;;;;;18.98;8.30;;;;;;;7.42;100.00;100672.19;5061325;28;20021;-60
2022/11/14 00:21:56;;;;;;;19.80;7.07;;;;;;;7.38;100.00;100663.78;5061474;28;20478;-61
2022/11/14 00:24:21;;;;;;;22.55;7.38;;;;;;;7.39;100.00;100667.25;5056301;28;20110;-61
2022/11/14 00:26:47;;;;;;;14.15;6.32;;;;;;;7.38;100.00;100661.16;5060165;28;20397;-60
2022/11/14 00:29:14;;;;;;;14.93;6.47;;;;;;;7.36;100.00;100662.31;5063635;28;20098;-61
2022/11/14 00:31:40;;;;;;;8.85;6.00;;;;;;;7.34;100.00;100664.28;5061974;28;20464;-60
2022/11/14 00:34:06;;;;;;;24.95;8.80;;;;;;;7.32;100.00;100661.78;5056736;28;20064;-61
2022/11/14 00:36:31;;;;;;;30.92;7.85;;;;;;;7.32;100.00;100655.69;5056261;28;20052;-60
2022/11/14 00:38:57;;;;;;;9.95;5.28;;;;;;;7.31;100.00;100654.88;5053658;28;20363;-61
2022/11/14 00:41:22;;;;;;;14.80;5.25;;;;;;;7.31;100.00;100644.34;5060607;28;20036;-60
2022/11/14 00:43:48;;;;;;;11.45;6.15;;;;;;;7.32;100.00;100650.44;5059468;28;20031;-60
2022/11/14 00:46:13;;;;;;;10.75;6.10;;;;;;;7.31;100.00;100646.16;5063236;28;20055;-61
2022/11/14 00:48:39;;;;;;;21.25;5.68;;;;;;;7.30;100.00;100647.13;5054800;28;20037;-61
2022/11/14 00:51:04;;;;;;;12.27;6.05;;;;;;;7.24;100.00;100647.78;5053830;28;20036;-60
2022/11/14 00:53:29;;;;;;;14.85;4.32;;;;;;;7.26;100.00;100645.81;5060617;28;20047;-60
2022/11/14 00:55:55;;;;;;;16.02;3.83;;;;;;;7.23;100.00;100644.34;5057586;28;20056;-60
2022/11/14 00:58:20;;;;;;;14.98;7.03;;;;;;;7.27;100.00;100642.19;5061515;28;20032;-60
2022/11/14 01:00:46;;;;;;;21.52;6.15;;;;;;;7.31;100.00;100635.59;5059487;28;20410;-61
2022/11/14 01:03:11;;;;;;;13.30;5.63;;;;;;;7.28;100.00;100638.53;5061130;28;20074;-60
2022/11/14 01:05:46;;;;;;;18.42;6.55;;;;;;;7.26;100.00;100638.72;5062897;28;20032;-60
2022/11/14 01:08:13;;;;;;;19.65;8.23;;;;;;;7.25;100.00;100642.34;5038887;28;20029;-60
2022/11/14 01:10:41;;;;;;;10.13;4.97;;;;;;;7.24;100.00;100632.78;5055351;28;20032;-60
2022/11/14 01:13:06;;;;;;;21.20;7.55;;;;;;;7.24;100.00;100637.25;5059854;28;20027;-61
2022/11/14 01:15:32;;;;;;;14.50;4.25;;;;;;;7.30;100.00;100633.94;5057188;28;20036;-60
2022/11/14 01:17:57;;;;;;;10.95;5.28;;;;;;;7.27;100.00;100621.09;5053205;28;20052;-62
2022/11/14 01:20:22;;;;;;;20.77;7.15;;;;;;;7.25;100.00;100626.50;5055198;28;20516;-61
2022/11/14 01:22:48;;;;;;;10.25;5.63;;;;;;;7.25;100.00;100623.06;5056478;28;20099;-61
2022/11/14 01:25:13;;;;;;;10.32;5.03;;;;;;;7.26;100.00;100622.91;5054866;28;20476;-60
2022/11/14 01:27:39;;;;;;;11.13;6.32;;;;;;;7.23;100.00;100625.88;5056275;28;20441;-61
2022/11/14 01:30:05;;;;;;;11.57;5.20;;;;;;;7.20;100.00;100624.41;5057602;28;20051;-61
2022/11/14 01:32:30;;;;;;;5.40;3.88;;;;;;;7.17;100.00;100627.34;5054114;28;20048;-60
2022/11/14 01:34:55;;;;;;;14.07;5.07;;;;;;;7.14;100.00;100624.22;5054474;28;20079;-61
2022/11/14 01:37:21;;;;;;;24.02;5.00;;;;;;;7.16;100.00;100624.88;5054320;28;20032;-58
2022/11/14 01:39:46;;;;;;;6.45;4.95;;;;;;;7.17;100.00;100623.88;5058562;28;20036;-61
2022/11/14 01:42:11;;;;;;;24.50;7.63;;;;;;;7.21;100.00;100627.84;5059504;28;20458;-60
2022/11/14 01:44:45;;;;;;;8.77;4.75;;;;;;;7.27;100.00;100616.63;5053459;28;20488;-61
2022/11/14 01:47:12;;;;;;;11.35;5.03;;;;;;;7.26;100.00;100609.72;5056847;28;20112;-61
2022/11/14 01:49:44;;;;;;;10.55;5.30;;;;;;;7.28;100.00;100602.47;5063922;28;20478;-61
2022/11/14 01:52:12;;;;;;;9.43;5.60;;;;;;;7.29;100.00;100605.94;5053801;28;20029;-60
2022/11/14 01:54:44;;;;;;;10.18;6.50;;;;;;;7.31;100.00;100607.41;5058092;28;20052;-60
2022/11/14 01:57:12;;;;;;;8.32;5.35;;;;;;;7.31;100.00;100603.94;5039051;28;20108;-60
2022/11/14 01:59:41;;;;;;;7.20;4.47;;;;;;;7.32;100.00;100602.94;5051467;28;20028;-61
2022/11/14 02:02:14;;;;;;;23.05;6.65;;;;;;;7.28;100.00;100597.19;5053834;28;20033;-60
2022/11/14 02:04:43;;;;;;;8.27;4.97;;;;;;;7.27;100.00;100594.72;5053685;28;20128;-62
2022/11/14 02:07:11;;;;;;;10.75;4.53;;;;;;;7.27;100.00;100587.63;5032942;28;20517;-63
2022/11/14 02:09:39;;;;;;;6.25;3.88;;;;;;;7.27;100.00;100586.78;5050161;28;20033;-63
2022/11/14 02:12:07;;;;;;;11.80;5.82;;;;;;;7.31;100.00;100585.50;5057236;28;20028;-62
2022/11/14 02:14:35;;;;;;;14.80;6.25;;;;;;;7.35;100.00;100584.97;5055256;28;20024;-63
2022/11/14 02:17:02;;;;;;;11.27;5.82;;;;;;;7.36;100.00;100581.34;5065415;28;20047;-60
2022/11/14 02:19:45;;;;;;;18.40;6.70;;;;;;;7.39;100.00;100585.47;5061800;28;20032;-61
2022/11/14 02:22:11;;;;;;;15.00;6.75;;;;;;;7.39;100.00;100588.94;5052311;28;20106;-63
2022/11/14 02:24:36;;;;;;;14.18;5.80;;;;;;;7.45;100.00;100582.16;5061985;28;20466;-62
2022/11/14 02:27:04;;;;;;;11.05;5.93;;;;;;;7.50;100.00;100581.66;5056679;28;20473;-63
2022/11/14 02:29:31;;;;;;;14.50;7.18;;;;;;;7.54;100.00;100569.78;5056450;28;20132;-63
2022/11/14 02:31:56;;;;;;;11.88;6.40;;;;;;;7.57;100.00;100564.16;5060128;28;20376;-61
2022/11/14 02:34:21;;;;;;;11.35;6.45;;;;;;;7.60;100.00;100562.00;5056417;28;20108;-61
2022/11/14 02:36:46;;;;;;;17.63;7.88;;;;;;;7.62;100.00;100548.66;5060510;28;20032;-61
2022/11/14 02:39:12;;;;;;;11.82;6.35;;;;;;;7.58;100.00;100556.06;5061123;28;20067;-63
2022/11/14 02:41:37;;;;;;;11.27;6.93;;;;;;;7.54;100.00;100569.78;5063931;28;20060;-63
2022/11/14 02:44:03;;;;;;;8.48;4.72;;;;;;;7.54;100.00;100567.97;5053703;28;20044;-62
2022/11/14 02:46:28;;;;;;;12.55;6.82;;;;;;;7.56;100.00;100570.41;5053840;28;20123;-63
2022/11/14 02:48:53;;;;;;;8.10;6.25;;;;;;;7.60;100.00;100564.63;5045884;28;20115;-63
2022/11/14 02:51:19;;;;;;;10.38;5.07;;;;;;;7.69;100.00;100569.88;5053863;28;20045;-62
2022/11/14 02:53:44;;;;;;;12.63;6.78;;;;;;;7.79;100.00;100562.59;5065090;28;20028;-63
2022/11/14 02:56:09;;;;;;;15.95;8.05;;;;;;;7.91;100.00;100568.34;5057334;28;20024;-63
2022/11/14 02:58:35;;;;;;;19.98;8.52;;;;;;;8.02;100.00;100563.47;5065569;28;20111;-63
2022/11/14 03:01:00;;;;;;;17.77;9.10;;;;;;;8.09;100.00;100569.72;5060312;28;20104;-62
2022/11/14 03:03:25;;;;;;;16.83;9.82;;;;;;;8.16;100.00;100566.38;5056379;28;20409;-60
2022/11/14 03:05:52;;;;;;;12.73;8.80;;;;;;;8.18;100.00;100564.41;5051696;28;20048;-60
2022/11/14 03:08:18;;;;;;;15.70;6.80;;;;;;;8.06;100.00;100563.97;5066380;28;20017;-61
2022/11/14 03:10:44;;;;;;;15.88;7.47;;;;;;;7.99;100.00;100563.84;5057359;28;20029;-62
2022/11/14 03:13:10;;;;;;;12.70;7.18;;;;;;;8.02;100.00;100576.69;5056167;28;20063;-62
2022/11/14 03:15:36;;;;;;;18.27;8.52;;;;;;;8.08;100.00;100583.13;5067871;28;20032;-63
2022/11/14 03:18:01;;;;;;;11.10;7.65;;;;;;;8.14;100.00;100576.31;5055306;28;20453;-63
2022/11/14 03:20:27;;;;;;;16.35;9.68;;;;;;;8.20;100.00;100572.97;5054041;28;20017;-62
2022/11/14 03:22:52;;;;;;;13.32;7.90;;;;;;;8.25;100.00;100574.09;5061700;28;20040;-62
2022/11/14 03:25:17;;;;;;;12.63;7.63;;;;;;;8.26;100.00;100573.13;5054416;28;20025;-62
2022/11/14 03:27:43;;;;;;;13.77;8.32;;;;;;;8.26;100.00;100561.72;5064365;28;20029;-62
2022/11/14 03:30:09;;;;;;;17.20;7.82;;;;;;;8.29;100.00;100561.38;5062708;28;20490;-62
2022/11/14 03:32:34;;;;;;;13.00;7.72;;;;;;;8.31;100.00;100564.66;5060217;28;20033;-62
2022/11/14 03:34:59;;;;;;;11.90;7.68;;;;;;;8.33;100.00;100559.22;5063596;28;20091;-62
2022/11/14 03:37:25;;;;;;;14.57;7.00;;;;;;;8.34;100.00;100559.03;5064480;28;20036;-62
2022/11/14 03:39:50;;;;;;;13.93;7.15;;;;;;;8.35;100.00;100565.16;5062154;28;20099;-60
2022/11/14 03:42:15;;;;;;;14.80;6.95;;;;;;;8.36;100.00;100554.38;5067161;28;20038;-57
2022/11/14 03:44:41;;;;;;;41.20;11.35;;;;;;;8.37;100.00;100558.69;5059929;28;20035;-59
2022/11/14 03:47:06;;;;;;;10.10;6.25;;;;;;;8.36;100.00;100554.38;5064645;28;20052;-62
2022/11/14 03:49:31;;;;;;;14.15;9.23;;;;;;;8.37;100.00;100556.03;5066668;28;20063;-62
2022/11/14 03:51:57;;;;;;;17.00;8.15;;;;;;;8.39;100.00;100548.81;5053218;28;20033;-63
2022/11/14 03:54:22;;;;;;;19.27;8.35;;;;;;;8.37;100.00;100545.47;5057590;28;20025;-61
2022/11/14 03:56:47;;;;;;;15.25;8.52;;;;;;;8.40;100.00;100533.78;5058320;28;20048;-62
2022/11/14 03:59:13;;;;;;;12.50;7.00;;;;;;;8.40;100.00;100529.31;5060964;28;20879;-62
2022/11/14 04:01:38;;;;;;;17.70;8.40;;;;;;;8.40;100.00;100523.19;5062628;28;20033;-62
2022/11/14 04:04:03;;;;;;;15.88;8.30;;;;;;;8.40;100.00;100517.91;5067298;28;20370;-63
2022/11/14 04:06:29;;;;;;;13.02;7.32;;;;;;;8.39;100.00;100511.81;5060201;28;20064;-61
2022/11/14 04:08:55;;;;;;;21.63;9.20;;;;;;;8.39;100.00;100521.50;5059739;28;20481;-62
2022/11/14 04:11:21;;;;;;;12.25;7.38;;;;;;;8.40;100.00;100524.00;5058241;28;20502;-61
2022/11/14 04:13:46;;;;;;;33.53;8.93;;;;;;;8.40;100.00;100518.72;5059104;28;20032;-63
2022/11/14 04:16:11;;;;;;;15.65;7.38;;;;;;;8.41;100.00;100516.91;5064483;28;20462;-63
2022/11/14 04:18:37;;;;;;;13.15;7.90;;;;;;;8.42;100.00;100511.47;5058569;28;20589;-62
2022/11/14 04:21:02;;;;;;;14.60;7.88;;;;;;;8.44;100.00;100512.09;5059155;28;20040;-62
2022/11/14 04:23:27;;;;;;;22.55;9.20;;;;;;;8.43;100.00;100509.63;5055685;28;20017;-62
2022/11/14 04:25:53;;;;;;;13.75;7.88;;;;;;;8.42;100.00;100506.19;5049057;28;20099;-61
2022/11/14 04:28:18;;;;;;;11.82;7.20;;;;;;;8.40;100.00;100500.25;5057988;28;20395;-62
2022/11/14 04:30:44;;;;;;;15.23;8.73;;;;;;;8.41;100.00;100498.41;5055494;28;20489;-64
2022/11/14 04:33:09;;;;;;;13.60;7.70;;;;;;;8.39;100.00;100506.53;5061055;28;20535;-62
2022/11/14 04:35:35;;;;;;;12.95;6.05;;;;;;;8.39;100.00;100506.53;5053971;28;20029;-61
2022/11/14 04:38:00;;;;;;;10.75;7.28;;;;;;;8.38;100.00;100514.59;5059761;28;20024;-61
2022/11/14 04:40:26;;;;;;;12.05;6.32;;;;;;;8.39;100.00;100511.81;5063070;28;20131;-62
2022/11/14 04:42:51;;;;;;;17.85;7.00;;;;;;;8.40;100.00;100525.84;5056171;28;20098;-62
2022/11/14 04:45:16;;;;;;;12.60;8.52;;;;;;;8.40;100.00;100524.00;5051379;28;20127;-60
2022/11/14 04:47:42;;;;;;;12.57;6.78;;;;;;;8.40;100.00;100526.66;5062500;28;20119;-62
2022/11/14 04:50:07;;;;;;;20.02;9.25;;;;;;;8.41;100.00;100527.47;5055641;28;20119;-62
2022/11/14 04:52:33;;;;;;;14.05;8.93;;;;;;;8.40;100.00;100518.72;5060605;28;20024;-62
2022/11/14 04:54:58;;;;;;;17.25;7.22;;;;;;;8.41;100.00;100519.53;5061739;28;20394;-63
2022/11/14 04:57:24;;;;;;;14.90;7.55;;;;;;;8.41;100.00;100517.72;5037122;28;20056;-62
2022/11/14 04:59:49;;;;;;;15.13;7.63;;;;;;;8.40;100.00;100508.16;5066822;28;20032;-62
2022/11/14 05:02:14;;;;;;;15.82;7.75;;;;;;;8.39;100.00;100500.38;5053233;28;20032;-62
2022/11/14 05:04:40;;;;;;;13.82;7.47;;;;;;;8.38;100.00;100486.34;5058881;28;20040;-63
2022/11/14 05:07:05;;;;;;;12.95;7.97;;;;;;;8.38;100.00;100488.97;5059291;28;20448;-63
2022/11/14 05:09:30;;;;;;;11.13;6.10;;;;;;;8.38;100.00;100483.69;5058936;28;20111;-61
2022/11/14 05:11:56;;;;;;;9.10;6.75;;;;;;;8.39;100.00;100484.53;5054197;28;20138;-63
2022/11/14 05:14:21;;;;;;;17.42;7.75;;;;;;;8.39;100.00;100485.41;5051580;28;20183;-63
2022/11/14 05:16:46;;;;;;;8.82;6.30;;;;;;;8.40;100.00;100491.50;5056511;28;20397;-63
2022/11/14 05:19:12;;;;;;;6.32;4.65;;;;;;;8.39;100.00;100488.03;5053709;28;20037;-62
2022/11/14 05:21:37;;;;;;;9.43;6.95;;;;;;;8.39;100.00;100489.81;5065054;28;20118;-63
2022/11/14 05:24:03;;;;;;;10.20;6.28;;;;;;;8.40;100.00;100483.56;5059142;28;20036;-62
2022/11/14 05:26:28;;;;;;;12.25;7.50;;;;;;;8.39;100.00;100479.22;5039239;28;20025;-61
2022/11/14 05:28:53;;;;;;;13.77;7.28;;;;;;;8.40;100.00;100478.28;5072149;28;20041;-62
2022/11/14 05:31:19;;;;;;;10.52;5.68;;;;;;;8.40;100.00;100471.19;5059968;28;20031;-63
2022/11/14 05:33:45;;;;;;;10.10;6.07;;;;;;;8.40;100.00;100460.59;5037631;28;20040;-63
2022/11/14 05:36:14;;;;;;;9.43;6.05;;;;;;;8.40;100.00;100460.59;5045774;28;20477;-61
2022/11/14 05:38:39;;;;;;;11.25;6.05;;;;;;;8.37;100.00;100460.94;5061172;28;20540;-61
2022/11/14 05:41:06;;;;;;;9.45;5.88;;;;;;;8.39;100.00;100469.53;5066331;28;20051;-63
2022/11/14 05:43:32;;;;;;;9.35;6.90;;;;;;;8.37;100.00;100471.50;5055872;28;20037;-62
2022/11/14 05:46:02;;;;;;;9.23;7.30;;;;;;;8.38;100.00;100475.78;5026704;28;20048;-62
2022/11/14 05:48:28;;;;;;;8.45;5.35;;;;;;;8.39;100.00;100466.03;5049034;28;20033;-62
2022/11/14 05:50:54;;;;;;;8.10;5.30;;;;;;;8.40;100.00;100473.00;5063740;28;20020;-62
2022/11/14 05:53:19;;;;;;;7.55;4.38;;;;;;;8.38;100.00;100472.31;5058331;28;20033;-63
2022/11/14 05:55:45;;;;;;;10.13;5.13;;;;;;;8.39;100.00;100473.94;5051314;28;20375;-63
2022/11/14 05:58:10;;;;;;;8.30;5.70;;;;;;;8.39;100.00;100469.53;5063586;28;20502;-63
2022/11/14 06:00:35;;;;;;;8.27;6.00;;;;;;;8.38;100.00;100467.03;5055909;28;20530;-62
2022/11/14 06:03:01;;;;;;;6.13;5.05;;;;;;;8.38;100.00;100477.59;5057409;28;20562;-62
2022/11/14 06:05:26;;;;;;;7.95;4.32;;;;;;;8.38;100.00;100478.41;5065057;28;20027;-63
2022/11/14 06:07:56;;;;;;;8.70;5.05;;;;;;;8.40;100.00;100473.00;5056145;28;20032;-61
2022/11/14 06:10:21;;;;;;;7.85;4.97;;;;;;;8.38;100.00;100467.84;5051354;28;20064;-63
2022/11/14 06:12:47;;;;;;;8.55;4.72;;;;;;;8.38;100.00;100464.41;5059009;28;20072;-63
2022/11/14 06:15:12;;;;;;;9.40;4.60;;;;;;;8.39;100.00;100468.66;5053530;28;20032;-63
2022/11/14 06:17:38;;;;;;;8.38;5.93;;;;;;;8.39;100.00;100472.19;5061343;28;20067;-63
2022/11/14 06:20:04;;;;;;;8.02;4.95;;;;;;;8.41;100.00;100461.41;5058490;28;20492;-64
2022/11/14 06:22:29;;;;;;;7.78;4.97;;;;;;;8.40;100.00;100457.16;5056065;28;20151;-62
2022/11/14 06:24:55;;;;;;;8.40;5.50;;;;;;;8.41;100.00;100466.72;5054785;28;20103;-61
2022/11/14 06:27:20;;;;;;;14.45;5.93;;;;;;;8.43;100.00;100470.81;5053506;28;20124;-61
2022/11/14 06:29:45;;;;;;;7.80;5.35;;;;;;;8.44;100.00;100467.19;5063509;28;20131;-62
2022/11/14 06:32:10;;;;;;;10.18;5.18;;;;;;;8.47;100.00;100477.41;5052342;28;20038;-63
2022/11/14 06:34:36;;;;;;;9.30;5.88;;;;;;;8.49;100.00;100477.22;5058803;28;20391;-62
2022/11/14 06:37:01;;;;;;;8.05;4.78;;;;;;;8.50;100.00;100481.50;5057707;28;20543;-62
2022/11/14 06:39:26;;;;;;;11.85;7.03;;;;;;;8.49;100.00;100475.41;5056934;28;20032;-60
2022/11/14 06:41:52;;;;;;;10.43;5.65;;;;;;;8.49;100.00;100471.91;5054359;28;20109;-63
2022/11/14 06:44:17;;;;;;;12.07;6.90;;;;;;;8.49;100.00;100464.00;5053617;28;20029;-62
2022/11/14 06:46:42;;;;;;;11.45;6.78;;;;;;;8.48;100.00;100459.72;5050997;28;20033;-62
2022/11/14 06:49:08;;;;;;;8.77;5.32;;;;;;;8.49;100.00;100459.56;5050827;28;20032;-63
2022/11/14 06:51:33;;;;;;;10.32;6.07;;;;;;;8.50;100.00;100455.09;5055322;28;20138;-62
2022/11/14 06:53:59;;;;;;;8.23;5.10;;;;;;;8.50;100.00;100455.91;5060036;28;20032;-63
2022/11/14 06:56:24;;;;;;;10.55;6.22;;;;;;;8.50;100.00;100450.63;5056003;28;20115;-61
2022/11/14 06:58:50;;;;;;;15.32;6.43;;;;;;;8.50;100.00;100450.63;5054779;28;20116;-62
2022/11/14 07:01:20;;;;;;;9.95;6.07;;;;;;;8.52;100.00;100451.25;5053672;28;20028;-63
2022/11/14 07:03:46;;;;;;;10.57;5.38;;;;;;;8.52;100.00;100443.34;5052039;28;20036;-60
2022/11/14 07:06:15;;;;;;;10.18;6.45;;;;;;;8.52;100.00;100448.63;5070517;28;20033;-62
2022/11/14 07:08:40;;;;;;;13.25;6.70;;;;;;;8.54;100.00;100459.00;5054769;28;20029;-62
2022/11/14 07:11:08;;;;;;;17.20;6.18;;;;;;;8.60;100.00;100460.13;5052540;28;20051;-62
2022/11/14 07:13:34;;;;;;;11.50;5.25;;;;;;;8.60;100.00;100470.69;5058142;28;20040;-63
2022/11/14 07:16:00;;;;;;;17.98;6.45;;;;;;;8.58;100.00;100468.22;5052475;28;20025;-63
2022/11/14 07:18:26;;;;;;;12.15;6.10;;;;;;;8.57;100.00;100466.59;5057146;28;20028;-62
2022/11/14 07:21:03;;;;;;;12.10;6.07;;;;;;;8.60;100.00;100462.78;5055847;28;20104;-62
2022/11/14 07:23:30;;;;;;;15.73;6.38;;;;;;;8.57;100.00;100461.31;5055728;28;20103;-62
2022/11/14 07:25:59;;;;;;;19.67;8.48;;;;;;;8.56;100.00;100450.91;5053768;28;20071;-63
2022/11/14 07:28:24;;;;;;;8.70;5.22;;;;;;;8.57;100.00;100450.75;5047627;28;20053;-61
2022/11/14 07:30:50;;;;;;;11.80;6.32;;;;;;;8.59;100.00;100451.34;5048769;28;20032;-63
2022/11/14 07:33:15;;;;;;;12.88;5.22;;;;;;;8.60;100.00;100453.00;5050188;28;20037;-61
2022/11/14 07:35:40;;;;;;;24.75;6.05;;;;;;;8.62;100.00;100455.47;5050914;28;20031;-63
2022/11/14 07:38:06;;;;;;;9.35;5.28;;;;;;;8.63;100.00;100457.13;5054669;28;20021;-63
2022/11/14 07:40:31;;;;;;;9.80;5.93;;;;;;;8.65;100.00;100450.66;5053629;28;20390;-62
2022/11/14 07:42:59;;;;;;;23.73;6.40;;;;;;;8.68;100.00;100452.13;5048015;28;20436;-60
2022/11/14 07:45:24;;;;;;;11.70;4.53;;;;;;;8.70;100.00;100448.31;5058392;28;20044;-63
2022/11/14 07:47:53;;;;;;;15.98;4.80;;;;;;;8.71;100.00;100452.56;5048673;28;20025;-62
2022/11/14 07:50:19;;;;;;;13.90;5.43;;;;;;;8.70;100.00;100455.41;5056113;28;20036;-62
2022/11/14 07:52:49;;;;;;;7.18;4.35;;;;;;;8.74;100.00;100438.19;5053563;28;20024;-63
2022/11/14 07:55:15;;;;;;;10.07;5.47;;;;;;;8.73;100.00;100440.00;5060880;28;20033;-62
2022/11/14 07:57:40;;;;;;;20.20;6.40;;;;;;;8.75;100.00;100442.44;5058685;28;20040;-63
2022/11/14 08:00:06;;;;;;;11.98;4.63;;;;;;;8.76;100.00;100438.81;5055400;28;20082;-64
2022/11/14 08:02:31;;;;;;;12.52;4.10;;;;;;;8.80;100.00;100444.56;5038021;28;20032;-63
2022/11/14 08:04:57;;;;;;;12.63;5.00;;;;;;;8.84;100.00;100438.75;5054025;28;20028;-62
2022/11/14 08:07:22;;;;;;;11.23;5.47;;;;;;;8.89;100.00;100430.28;5059786;28;20032;-62
2022/11/14 08:09:47;;;;;;;15.77;4.97;;;;;;;8.91;100.00;100437.03;5059032;28;20025;-63
2022/11/14 08:12:13;;;;;;;10.00;4.88;;;;;;;8.91;100.00;100442.31;5050802;28;20021;-63
2022/11/14 08:14:38;;;;;;;9.40;4.55;;;;;;;8.90;100.00;100438.00;5051455;28;20052;-63
2022/11/14 08:17:03;;;;;;;6.97;3.97;;;;;;;8.93;100.00;100439.47;5051850;28;20116;-60
2022/11/14 08:19:29;;;;;;;6.88;3.83;;;;;;;8.97;100.00;100435.47;5059351;28;20123;-62
2022/11/14 08:21:54;;;;;;;7.93;3.67;;;;;;;9.01;100.00;100430.63;5057883;28;20029;-62
2022/11/14 08:24:19;;;;;;;14.38;4.60;;;;;;;9.02;100.00;100429.66;5054652;28;20078;-63
2022/11/14 08:26:45;;;;;;;5.65;3.67;;;;;;;9.05;100.00;100426.63;5051625;28;20028;-63
2022/11/14 08:29:10;;;;;;;14.73;4.88;;;;;;;9.11;100.00;100432.03;5054121;28;20049;-63
2022/11/14 08:31:35;;;;;;;7.22;4.10;;;;;;;9.16;100.00;100431.44;5061248;28;20039;-61
2022/11/14 08:34:01;;;;;;;6.25;4.13;;;;;;;9.21;100.00;100428.25;5033789;28;20033;-63
2022/11/14 08:36:26;;;;;;;11.52;5.15;;;;;;;9.21;100.00;100429.09;5031469;28;20028;-62
2022/11/14 08:38:51;;;;;;;4.28;3.28;;;;;;;9.23;100.00;100432.38;5058145;28;20064;-62
2022/11/14 08:41:17;;;;;;;9.60;4.13;;;;;;;9.25;100.00;100422.44;5060134;28;20131;-62
2022/11/14 08:43:42;;;;;;;5.43;4.07;;;;;;;9.28;100.00;100426.53;5058345;28;20461;-62
2022/11/14 08:46:08;;;;;;;8.73;3.75;;;;;;;9.33;100.00;100426.81;5059175;28;20078;-63
2022/11/14 08:48:33;;;;;;;12.63;4.50;;;;;;;9.34;100.00;100418.66;5050640;28;20025;-63
2022/11/14 08:51:04;;;;;;;8.00;3.33;;;;;;;9.35;100.00;100422.97;5060559;28;20463;-63
2022/11/14 08:53:30;;;;;;;6.70;3.60;;;;;;;9.39;100.00;100423.41;5057286;28;20036;-63
2022/11/14 08:55:55;;;;;;;9.82;4.15;;;;;;;9.39;100.00;100431.34;5056089;28;20511;-62
2022/11/14 08:58:21;;;;;;;11.40;4.70;;;;;;;9.39;100.00;100444.59;5055810;28;20027;-62
2022/11/14 09:00:46;;;;;;;6.13;3.50;;;;;;;9.37;100.00;100442.13;5062230;28;20037;-59
2022/11/14 09:03:15;;;;;;;4.80;2.97;;;;;;;9.38;100.00;100433.19;5068383;28;20133;-61
2022/11/14 09:05:41;;;;;;;8.98;4.35;;;;;;;9.43;100.00;100445.06;5058919;28;20025;-61
2022/11/14 09:08:07;;;;;;;11.68;4.32;;;;;;;9.46;100.00;100439.38;5056454;28;20016;-60
2022/11/14 09:10:33;;;;;;;7.28;4.82;;;;;;;9.44;100.00;100438.75;5047785;28;20047;-59
2022/11/14 09:13:00;;;;;;;6.88;3.80;;;;;;;9.47;100.00;100435.72;5062758;28;20390;-60
2022/11/14 09:15:27;;;;;;;5.45;3.75;;;;;;;9.47;100.00;100441.81;5060375;28;20025;-60
2022/11/14 09:17:54;;;;;;;6.88;4.22;;;;;;;9.52;100.00;100430.69;5067666;28;20032;-59
2022/11/14 09:20:20;;;;;;;7.38;2.92;;;;;;;9.52;100.00;100433.34;5055587;28;20032;-60
2022/11/14 09:22:45;;;;;;;7.03;2.72;;;;;;;9.55;100.00;100430.31;5055215;28;20017;-60
2022/11/14 09:25:11;;;;;;;6.22;3.53;;;;;;;9.59;100.00;100431.59;5063521;28;20435;-59
2022/11/14 09:27:36;;;;;;;7.32;3.78;;;;;;;9.61;100.00;100421.66;5051884;28;20041;-60
2022/11/14 09:30:02;;;;;;;7.25;4.28;;;;;;;9.62;100.00;100418.00;5063159;28;20064;-58
2022/11/14 09:32:27;;;;;;;7.50;3.38;;;;;;;9.61;100.00;100414.53;5049487;28;20060;-60
2022/11/14 09:34:53;;;;;;;8.73;3.63;;;;;;;9.65;100.00;100403.56;5051730;28;20373;-60
2022/11/14 09:37:18;;;;;;;4.43;2.67;;;;;;;9.71;100.00;100410.78;5056722;28;20071;-62
2022/11/14 09:39:43;;;;;;;6.07;3.20;;;;;;;9.72;100.00;100397.34;5060120;28;20021;-62
2022/11/14 09:42:27;;;;;;;9.27;3.63;;;;;;;9.77;100.00;100396.78;5061996;28;20098;-60
2022/11/14 09:44:55;;;;;;;4.93;3.72;;;;;;;9.80;100.00;100389.25;5058569;28;20383;-61
2022/11/14 09:47:32;;;;;;;7.38;3.45;;;;;;;9.85;100.00;100387.91;5062349;28;20021;-61
2022/11/14 09:50:10;;;;;;;3.42;2.47;;;;;;;9.89;100.00;100381.22;5061308;28;20031;-61
2022/11/14 09:52:56;;;;;;;6.57;3.38;;;;;;;9.94;100.00;100390.25;5059009;28;20498;-63
2022/11/14 09:55:27;;;;;;;6.38;5.00;;;;;;;9.98;100.00;100388.84;5059887;28;20032;-62
2022/11/14 09:57:54;;;;;;;5.50;3.55;;;;;;;9.99;100.00;100393.13;5060934;28;20110;-62
2022/11/14 10:00:26;;;;;;;5.85;3.47;;;;;;;10.03;100.00;100394.38;5065689;28;20498;-62
2022/11/14 10:03:09;;;;;;;5.32;3.25;;;;;;;10.04;100.00;100396.03;5058429;28;20017;-62
2022/11/14 10:06:01;;;;;;;11.07;4.07;;;;;;;10.06;100.00;100395.84;5056997;28;20044;-62
2022/11/14 10:08:38;;;;;;;9.88;4.38;;;;;;;10.08;100.00;100391.16;5040054;28;20509;-62
2022/11/14 10:11:15;;;;;;;7.85;3.55;;;;;;;10.14;100.00;100393.06;5054583;28;20101;-63
2022/11/14 10:14:07;;;;;;;7.45;3.20;;;;;;;10.16;100.00;100383.09;5062418;28;20031;-61
2022/11/14 10:16:55;;;;;;;;;;;;;;;10.20;100.00;100387.00;5053869;28;20029;-62
2022/11/14 10:19:26;;;;;;;4.50;2.85;;;;;;;10.22;100.00;100385.00;5056960;28;19920;-62
2022/11/14 10:22:22;;;;;;;7.03;3.20;;;;;;;10.30;100.00;100376.13;5059305;28;20040;-63
2022/11/14 10:24:59;;;;;;;11.10;4.47;;;;;;;10.38;100.00;100380.47;5065560;28;20040;-62
2022/11/14 10:27:30;;;;;;;8.35;3.42;;;;;;;10.41;100.00;100380.06;5057051;28;20035;-62
2022/11/14 10:30:04;;;;;;;6.03;4.03;;;;;;;10.44;100.00;100385.00;5043298;28;20205;-61
2022/11/14 10:32:33;;;;;;;6.00;3.70;;;;;;;10.45;100.00;100376.84;5059086;28;20120;-64
2022/11/14 10:35:09;;;;;;;9.23;5.13;;;;;;;10.51;100.00;100375.25;5040312;28;20482;-62
2022/11/14 10:37:45;;;;;;;9.52;4.10;;;;;;;10.55;100.00;100371.19;5044510;28;20097;-63
2022/11/14 10:40:19;;;;;;;7.38;4.25;;;;;;;10.60;100.00;100367.97;5065285;28;20118;-63
2022/11/14 10:42:55;;;;;;;9.05;4.50;;;;;;;10.61;100.00;100348.38;5058805;28;20025;-62
2022/11/14 10:45:33;;;;;;;6.57;4.13;;;;;;;10.67;100.00;100347.63;5058962;28;20409;-61
2022/11/14 10:48:08;;;;;;;9.07;5.28;;;;;;;10.77;100.00;100336.66;5054285;28;20077;-62
2022/11/14 10:50:45;;;;;;;12.90;7.32;;;;;;;10.84;100.00;100337.50;5055284;28;20051;-63
2022/11/14 10:53:38;;;;;;;8.98;5.40;;;;;;;10.83;100.00;100334.03;5054661;28;20562;-61
2022/11/14 10:56:03;;;;;;;8.68;4.97;;;;;;;10.87;100.00;100343.25;5043861;28;20037;-61
2022/11/14 10:58:28;;;;;;;8.85;5.40;;;;;;;10.91;100.00;100331.22;5063282;28;20039;-63
2022/11/14 11:00:54;;;;;;;8.30;4.35;;;;;;;10.98;100.00;100336.56;5054058;28;20029;-61
2022/11/14 11:03:19;;;;;;;13.75;6.55;;;;;;;10.98;100.00;100344.53;5053049;28;20370;-62
2022/11/14 11:05:50;;;;;;;7.47;5.07;;;;;;;11.02;100.00;100332.50;5066179;28;20075;-62
2022/11/14 11:11:30;;;;;;;10.38;6.00;;;;;;;11.13;100.00;100317.88;5065749;28;20094;-63
2022/11/14 11:13:59;;;;;;;12.05;6.80;;;;;;;11.16;100.00;100319.31;5060022;28;20066;-64
2022/11/14 11:16:27;;;;;;;10.02;4.88;;;;;;;11.19;100.00;100326.84;5059974;28;20024;-61
2022/11/14 11:18:53;;;;;;;8.23;5.18;;;;;;;11.19;100.00;100330.31;5044624;28;20078;-60
2022/11/14 11:21:21;;;;;;;12.20;4.85;;;;;;;11.21;100.00;100324.81;5043057;28;20029;-61